createdAt,value
2022-11-26T00:02:18.177Z,95578.03
2022-11-26T00:04:45.320Z,95592.09
2022-11-26T00:07:14.138Z,95604.56
2022-11-26T00:09:41.734Z,95591.13
2022-11-26T00:12:23.782Z,95565.44
2022-11-26T00:14:52.014Z,95574.59
2022-11-26T00:17:20.019Z,95553.59
2022-11-26T00:19:47.533Z,95565.06
2022-11-26T00:22:32.201Z,95561.72
2022-11-26T00:24:58.984Z,95558.66
2022-11-26T00:27:27.680Z,95573.25
2022-11-26T00:29:55.241Z,95566.25
2022-11-26T00:32:26.073Z,95585.50
2022-11-26T00:34:53.994Z,95563.28
2022-11-26T00:37:20.689Z,95577.78
2022-11-26T00:39:48.393Z,95545.28
2022-11-26T00:42:15.199Z,95548.00
2022-11-26T00:44:41.891Z,95553.16
2022-11-26T00:47:10.299Z,95577.38
2022-11-26T00:49:38.255Z,95565.81
2022-11-26T00:52:23.524Z,95568.97
2022-11-26T00:54:50.373Z,95570.91
2022-11-26T00:57:17.122Z,95570.03
2022-11-26T00:59:44.159Z,95597.00
2022-11-26T01:02:11.097Z,95598.34
2022-11-26T01:04:38.799Z,95585.56
2022-11-26T01:07:05.801Z,95590.88
2022-11-26T01:09:33.181Z,95588.06
2022-11-26T01:12:00.000Z,95598.53
2022-11-26T01:14:26.770Z,95609.16
2022-11-26T01:16:56.514Z,95612.09
2022-11-26T01:19:24.046Z,95610.91
2022-11-26T01:21:51.015Z,95632.03
2022-11-26T01:24:17.776Z,95640.22
2022-11-26T01:26:45.172Z,95657.22
2022-11-26T01:29:16.850Z,95636.84
2022-11-26T01:31:44.192Z,95639.22
2022-11-26T01:34:11.113Z,95630.50
2022-11-26T01:36:40.556Z,95638.47
2022-11-26T01:39:16.111Z,95642.75
2022-11-26T01:41:56.922Z,95665.59
2022-11-26T01:44:29.692Z,95653.16
2022-11-26T01:46:58.274Z,95663.59
2022-11-26T01:49:43.279Z,95669.47
2022-11-26T01:52:24.924Z,95659.09
2022-11-26T01:54:53.690Z,95645.28
2022-11-26T01:57:30.121Z,95651.88
2022-11-26T02:00:04.203Z,95657.13
2022-11-26T02:02:40.571Z,95631.69
2022-11-26T02:05:11.127Z,95642.84
2022-11-26T02:07:39.060Z,95645.38
2022-11-26T02:10:06.541Z,95668.16
2022-11-26T02:12:33.709Z,95648.47
2022-11-26T02:15:00.452Z,95650.66
2022-11-26T02:17:55.705Z,95659.22
2022-11-26T02:20:49.585Z,95696.38
2022-11-26T02:23:39.030Z,95708.44
2022-11-26T02:26:17.656Z,95711.38
2022-11-26T02:28:59.835Z,95706.69
2022-11-26T02:31:48.877Z,95683.72
2022-11-26T02:34:26.580Z,95677.63
2022-11-26T02:37:13.062Z,95684.56
2022-11-26T02:39:40.189Z,95669.56
2022-11-26T02:42:26.987Z,95687.53
2022-11-26T02:44:59.694Z,95711.09
2022-11-26T02:47:28.768Z,95705.75
2022-11-26T02:49:58.936Z,95710.56
2022-11-26T02:52:27.617Z,95714.13
2022-11-26T02:54:56.741Z,95705.53
2022-11-26T02:57:28.921Z,95710.53
2022-11-26T02:59:56.369Z,95715.66
2022-11-26T03:02:38.850Z,95670.34
2022-11-26T03:05:09.491Z,95693.66
2022-11-26T03:07:37.495Z,95697.50
2022-11-26T03:10:05.674Z,95705.88
2022-11-26T03:12:32.404Z,95694.53
2022-11-26T03:14:59.236Z,95677.00
2022-11-26T03:17:25.983Z,95705.44
2022-11-26T03:19:53.389Z,95695.66
2022-11-26T03:22:20.112Z,95720.38
2022-11-26T03:24:46.863Z,95715.97
2022-11-26T03:27:13.883Z,95707.94
2022-11-26T03:29:40.764Z,95721.38
2022-11-26T03:32:07.605Z,95731.28
2022-11-26T03:34:35.035Z,95707.59
2022-11-26T03:37:01.798Z,95703.13
2022-11-26T03:39:28.465Z,95720.84
2022-11-26T03:41:55.656Z,95723.16
2022-11-26T03:44:22.483Z,95694.03
2022-11-26T03:46:49.206Z,95722.66
2022-11-26T03:49:15.938Z,95724.97
2022-11-26T03:51:42.908Z,95729.22
2022-11-26T03:54:10.253Z,95746.94
2022-11-26T03:56:37.141Z,95754.78
2022-11-26T03:59:04.243Z,95719.97
2022-11-26T04:01:31.069Z,95720.97
2022-11-26T04:03:57.973Z,95732.22
2022-11-26T04:06:25.288Z,95717.91
2022-11-26T04:08:51.980Z,95736.31
2022-11-26T04:11:18.742Z,95726.19
2022-11-26T04:13:45.760Z,95719.66
2022-11-26T04:16:12.683Z,95699.03
2022-11-26T04:18:40.121Z,95730.25
2022-11-26T04:21:07.982Z,95738.91
2022-11-26T04:23:36.529Z,95724.53
2022-11-26T04:26:03.643Z,95688.91
2022-11-26T04:28:30.669Z,95723.34
2022-11-26T04:30:57.763Z,95743.63
2022-11-26T04:33:27.334Z,95705.25
2022-11-26T04:35:54.184Z,95708.44
2022-11-26T04:38:25.554Z,95745.72
2022-11-26T04:40:53.071Z,95718.38
2022-11-26T04:43:21.639Z,95737.06
2022-11-26T04:45:48.763Z,95729.69
2022-11-26T04:48:15.773Z,95740.81
2022-11-26T04:50:42.768Z,95749.53
2022-11-26T04:53:10.316Z,95767.31
2022-11-26T04:55:37.428Z,95758.72
2022-11-26T04:58:04.141Z,95761.13
2022-11-26T05:00:31.213Z,95765.25
2022-11-26T05:02:58.138Z,95779.91
2022-11-26T05:05:25.578Z,95791.31
2022-11-26T05:07:52.351Z,95783.59
2022-11-26T05:10:19.132Z,95792.50
2022-11-26T05:12:46.169Z,95818.06
2022-11-26T05:15:13.048Z,95804.13
2022-11-26T05:17:40.499Z,95806.72
2022-11-26T05:20:08.086Z,95797.50
2022-11-26T05:22:34.925Z,95799.47
2022-11-26T05:25:01.667Z,95805.59
2022-11-26T05:27:28.336Z,95771.59
2022-11-26T05:29:56.048Z,95799.81
2022-11-26T05:32:22.712Z,95786.50
2022-11-26T05:34:49.450Z,95772.09
2022-11-26T05:37:16.448Z,95757.69
2022-11-26T05:39:43.286Z,95794.78
2022-11-26T05:42:10.902Z,95808.22
2022-11-26T05:44:38.449Z,95803.69
2022-11-26T05:47:05.584Z,95809.88
2022-11-26T05:49:32.325Z,95802.88
2022-11-26T05:51:59.402Z,95808.28
2022-11-26T05:54:27.044Z,95804.00
2022-11-26T05:56:59.803Z,95817.63
2022-11-26T05:59:27.450Z,95812.91
2022-11-26T06:01:55.007Z,95830.50
2022-11-26T06:04:21.808Z,95819.03
2022-11-26T06:06:48.482Z,95813.31
2022-11-26T06:09:15.311Z,95832.94
2022-11-26T06:11:42.135Z,95824.28
2022-11-26T06:14:10.985Z,95842.13
2022-11-26T06:19:10.350Z,95794.16
2022-11-26T06:21:37.227Z,95808.78
2022-11-26T06:24:04.250Z,95790.00
2022-11-26T06:26:31.356Z,95805.72
2022-11-26T06:28:58.493Z,95798.25
2022-11-26T06:31:25.346Z,95823.66
2022-11-26T06:33:57.021Z,95809.25
2022-11-26T06:36:25.297Z,95799.97
2022-11-26T06:38:52.002Z,95803.84
2022-11-26T06:41:18.709Z,95826.72
2022-11-26T06:43:45.583Z,95803.09
2022-11-26T06:46:12.617Z,95842.34
2022-11-26T06:48:40.360Z,95819.97
2022-11-26T06:51:10.545Z,95829.03
2022-11-26T06:53:37.498Z,95836.69
2022-11-26T06:56:07.017Z,95835.72
2022-11-26T06:58:33.938Z,95867.88
2022-11-26T07:01:00.991Z,95870.09
2022-11-26T07:03:33.144Z,95856.22
2022-11-26T07:06:00.573Z,95884.78
2022-11-26T07:08:27.278Z,95887.19
2022-11-26T07:10:54.278Z,95905.09
2022-11-26T07:13:20.997Z,95873.22
2022-11-26T07:15:47.784Z,95891.69
2022-11-26T07:18:14.599Z,95846.56
2022-11-26T07:20:41.901Z,95879.63
2022-11-26T07:23:08.607Z,95902.47
2022-11-26T07:25:36.772Z,95880.41
2022-11-26T07:28:03.651Z,95897.72
2022-11-26T07:30:30.751Z,95911.75
2022-11-26T07:32:57.488Z,95921.59
2022-11-26T07:35:24.560Z,95922.88
2022-11-26T07:37:51.453Z,95904.81
2022-11-26T07:40:18.459Z,95914.91
2022-11-26T07:42:50.389Z,95899.56
2022-11-26T07:45:24.141Z,95899.97
2022-11-26T07:47:50.843Z,95918.94
2022-11-26T07:50:17.594Z,95937.19
2022-11-26T07:52:44.520Z,95944.84
2022-11-26T07:55:12.780Z,95915.75
2022-11-26T07:57:39.789Z,95930.47
2022-11-26T08:00:07.239Z,95946.25
2022-11-26T08:02:38.645Z,95913.81
2022-11-26T08:05:05.940Z,95924.13
2022-11-26T08:07:32.710Z,95936.75
2022-11-26T08:09:59.795Z,95949.91
2022-11-26T08:12:27.241Z,95959.84
2022-11-26T08:14:53.983Z,95953.13
2022-11-26T08:17:20.783Z,95940.19
2022-11-26T08:19:47.740Z,95952.72
2022-11-26T08:22:14.735Z,95953.03
2022-11-26T08:24:41.533Z,95954.00
2022-11-26T08:27:08.309Z,95938.88
2022-11-26T08:29:37.141Z,95943.50
2022-11-26T08:32:04.310Z,95956.84
2022-11-26T08:34:31.530Z,95948.38
2022-11-26T08:36:58.393Z,95938.25
2022-11-26T08:39:25.390Z,95936.69
2022-11-26T08:41:53.263Z,95929.81
2022-11-26T08:44:21.197Z,95941.69
2022-11-26T08:46:48.603Z,95947.63
2022-11-26T08:49:17.032Z,95910.47
2022-11-26T08:51:44.652Z,95937.75
2022-11-26T08:54:12.860Z,95945.47
2022-11-26T08:56:39.823Z,95930.69
2022-11-26T08:59:06.603Z,95957.75
2022-11-26T09:01:34.179Z,95933.66
2022-11-26T09:04:03.207Z,95948.56
2022-11-26T09:06:31.862Z,95939.81
2022-11-26T09:09:12.933Z,95959.69
2022-11-26T09:11:58.084Z,95951.84
2022-11-26T09:14:28.305Z,95975.25
2022-11-26T09:16:57.017Z,95939.38
2022-11-26T09:19:25.115Z,95962.22
2022-11-26T09:21:52.043Z,95945.88
2022-11-26T09:24:18.891Z,95968.91
2022-11-26T09:26:46.054Z,95970.22
2022-11-26T09:29:14.849Z,95958.19
2022-11-26T09:32:07.534Z,95937.13
2022-11-26T09:34:31.995Z,95974.94
2022-11-26T09:36:58.893Z,95980.22
2022-11-26T09:39:27.275Z,95973.09
2022-11-26T09:42:03.890Z,95953.03
2022-11-26T09:44:43.424Z,95976.69
2022-11-26T09:47:13.675Z,95964.97
2022-11-26T09:49:48.189Z,95981.53
2022-11-26T09:52:18.637Z,96002.63
2022-11-26T09:54:48.200Z,95996.56
2022-11-26T09:57:21.137Z,96028.69
2022-11-26T09:59:50.557Z,95996.63
2022-11-26T10:02:17.509Z,96014.88
2022-11-26T10:04:44.773Z,96017.28
2022-11-26T10:07:35.817Z,96018.16
2022-11-26T10:10:13.831Z,96002.03
2022-11-26T10:13:19.799Z,95993.78
2022-11-26T10:16:15.030Z,95983.72
2022-11-26T10:19:14.877Z,96017.16
2022-11-26T10:21:58.721Z,96009.91
2022-11-26T10:24:44.242Z,95999.34
2022-11-26T10:27:15.998Z,95976.09
2022-11-26T10:29:48.881Z,95942.31
2022-11-26T10:32:20.935Z,95963.19
2022-11-26T10:34:53.837Z,95948.78
2022-11-26T10:37:22.601Z,95986.59
2022-11-26T10:39:59.936Z,95996.75
2022-11-26T10:42:42.035Z,96008.69
2022-11-26T10:45:22.502Z,95991.97
2022-11-26T10:47:49.418Z,95978.28
2022-11-26T10:50:46.754Z,95984.13
2022-11-26T10:53:24.411Z,95992.44
2022-11-26T10:55:53.853Z,96004.25
2022-11-26T10:58:24.506Z,95982.34
2022-11-26T11:00:51.267Z,96000.72
2022-11-26T11:03:44.483Z,95986.97
2022-11-26T11:06:26.509Z,95953.38
2022-11-26T11:08:54.648Z,95956.84
2022-11-26T11:11:31.401Z,95955.59
2022-11-26T11:13:59.346Z,95963.47
2022-11-26T11:16:28.269Z,95956.84
2022-11-26T11:19:03.169Z,95974.56
2022-11-26T11:21:35.310Z,95972.44
2022-11-26T11:24:18.260Z,95963.56
2022-11-26T11:26:47.908Z,95945.84
2022-11-26T11:29:30.033Z,95962.31
2022-11-26T11:31:58.584Z,95942.56
2022-11-26T11:34:39.985Z,95956.91
2022-11-26T11:37:15.787Z,95978.00
2022-11-26T11:39:43.723Z,95985.47
2022-11-26T11:42:40.573Z,95987.94
2022-11-26T11:45:22.066Z,95989.09
2022-11-26T11:47:53.029Z,95977.88
2022-11-26T11:50:30.592Z,95938.13
2022-11-26T11:53:24.772Z,95974.81
2022-11-26T11:56:19.297Z,95962.72
2022-11-26T11:59:21.696Z,95959.34
2022-11-26T12:01:48.429Z,95952.34
2022-11-26T12:04:31.793Z,95967.56
2022-11-26T12:07:19.108Z,95967.00
2022-11-26T12:10:18.230Z,95964.56
2022-11-26T12:12:56.525Z,95942.56
2022-11-26T12:15:34.187Z,95953.38
2022-11-26T12:18:26.425Z,95949.88
2022-11-26T12:21:04.378Z,95945.44
2022-11-26T12:23:55.298Z,95923.47
2022-11-26T12:26:33.481Z,95926.84
2022-11-26T12:29:07.077Z,95932.91
2022-11-26T12:31:44.576Z,95947.94
2022-11-26T12:34:30.000Z,95938.44
2022-11-26T12:37:07.066Z,95964.31
2022-11-26T12:39:45.313Z,95964.66
2022-11-26T12:42:44.843Z,95976.44
2022-11-26T12:45:27.361Z,95986.00
2022-11-26T12:48:00.324Z,95971.13
2022-11-26T12:50:41.980Z,95979.97
2022-11-26T12:53:25.357Z,95987.00
2022-11-26T12:56:18.574Z,95984.91
2022-11-26T12:59:07.018Z,95987.44
2022-11-26T13:01:34.013Z,96004.75
2022-11-26T13:04:36.039Z,95983.63
2022-11-26T13:07:16.833Z,95990.09
2022-11-26T13:10:03.772Z,95995.16
2022-11-26T13:12:49.129Z,95988.25
2022-11-26T13:15:33.738Z,96007.53
2022-11-26T13:18:02.718Z,95978.44
2022-11-26T13:20:55.726Z,95994.44
2022-11-26T13:23:52.421Z,95991.47
2022-11-26T13:26:28.045Z,95993.28
2022-11-26T13:29:28.324Z,95993.50
2022-11-26T13:32:18.112Z,95999.28
2022-11-26T13:35:00.634Z,95994.31
2022-11-26T13:38:04.005Z,95994.81
2022-11-26T13:40:45.791Z,95998.47
2022-11-26T13:43:35.054Z,95982.00
2022-11-26T13:46:07.589Z,95978.56
2022-11-26T13:48:38.146Z,95977.44
2022-11-26T13:51:16.958Z,95976.59
2022-11-26T13:53:50.626Z,95970.31
2022-11-26T13:56:23.762Z,95978.03
2022-11-26T13:59:01.343Z,95955.22
2022-11-26T14:01:37.264Z,95964.13
2022-11-26T14:04:27.399Z,95970.97
2022-11-26T14:07:06.032Z,95980.84
2022-11-26T14:09:46.529Z,96005.16
2022-11-26T14:12:14.941Z,95993.88
2022-11-26T14:14:42.952Z,95990.03
2022-11-26T14:17:12.817Z,95991.78
2022-11-26T14:19:39.468Z,95985.72
2022-11-26T14:22:07.284Z,95982.91
2022-11-26T14:25:06.673Z,95994.88
2022-11-26T14:27:46.620Z,95994.53
2022-11-26T14:30:19.107Z,95981.81
2022-11-26T14:33:05.405Z,95998.31
2022-11-26T14:35:35.455Z,95985.63
2022-11-26T14:38:05.283Z,95999.44
2022-11-26T14:40:37.663Z,95956.41
2022-11-26T14:43:19.788Z,95998.56
2022-11-26T14:46:12.506Z,95976.44
2022-11-26T14:48:50.528Z,95975.41
2022-11-26T14:51:23.701Z,95974.38
2022-11-26T14:53:51.763Z,95968.13
2022-11-26T14:56:21.303Z,95954.16
2022-11-26T14:59:14.344Z,95957.66
2022-11-26T15:01:45.366Z,95938.28
2022-11-26T15:04:26.168Z,95967.84
2022-11-26T15:06:52.973Z,95980.00
2022-11-26T15:09:24.412Z,95984.31
2022-11-26T15:12:11.416Z,96003.47
2022-11-26T15:14:52.950Z,95992.91
2022-11-26T15:17:22.728Z,95985.28
2022-11-26T15:19:52.734Z,95964.69
2022-11-26T15:22:35.615Z,95996.19
2022-11-26T15:25:02.859Z,95995.47
2022-11-26T15:27:53.093Z,95992.22
2022-11-26T15:30:25.468Z,95994.69
2022-11-26T15:32:58.315Z,95985.78
2022-11-26T15:35:25.345Z,96016.16
2022-11-26T15:37:52.148Z,96041.72
2022-11-26T15:40:23.982Z,96037.88
2022-11-26T15:42:57.939Z,96029.53
2022-11-26T15:45:37.716Z,96037.34
2022-11-26T15:48:05.998Z,96042.44
2022-11-26T15:50:36.315Z,96035.19
2022-11-26T15:53:17.048Z,96050.25
2022-11-26T15:55:48.231Z,96042.59
2022-11-26T15:58:39.625Z,96043.91
2022-11-26T16:01:17.086Z,96048.53
2022-11-26T16:03:47.297Z,96039.25
2022-11-26T16:06:33.291Z,96009.78
2022-11-26T16:09:02.764Z,96021.75
2022-11-26T16:11:34.217Z,96047.81
2022-11-26T16:14:22.674Z,96048.94
2022-11-26T16:16:51.522Z,96056.50
2022-11-26T16:19:22.504Z,96058.72
2022-11-26T16:21:51.491Z,96051.13
2022-11-26T16:24:36.259Z,96030.69
2022-11-26T16:27:06.524Z,95994.78
2022-11-26T16:29:36.179Z,96010.59
2022-11-26T16:32:03.597Z,96000.19
2022-11-26T16:34:30.831Z,95995.03
2022-11-26T16:37:32.889Z,95998.81
2022-11-26T16:40:02.395Z,95985.00
2022-11-26T16:42:32.246Z,95974.03
2022-11-26T16:45:03.959Z,95947.19
2022-11-26T16:47:41.234Z,95995.31
2022-11-26T16:50:26.178Z,96012.13
2022-11-26T16:52:54.778Z,95990.19
2022-11-26T16:55:25.549Z,95977.59
2022-11-26T16:57:58.173Z,95988.53
2022-11-26T17:00:26.251Z,95997.91
2022-11-26T17:02:53.557Z,95987.44
2022-11-26T17:05:21.542Z,95978.19
2022-11-26T17:07:48.225Z,95977.03
2022-11-26T17:10:21.402Z,95995.34
2022-11-26T17:12:50.016Z,95996.72
2022-11-26T17:15:18.428Z,96003.47
2022-11-26T17:17:45.752Z,96021.13
2022-11-26T17:20:20.053Z,96018.03
2022-11-26T17:22:48.222Z,96015.13
2022-11-26T17:25:16.012Z,96030.34
2022-11-26T17:27:43.558Z,96033.69
2022-11-26T17:30:28.382Z,96029.00
2022-11-26T17:32:55.215Z,96043.44
2022-11-26T17:35:22.022Z,96028.03
2022-11-26T17:37:48.849Z,96025.66
2022-11-26T17:40:19.293Z,96031.38
2022-11-26T17:42:46.995Z,96038.47
2022-11-26T17:45:14.580Z,96027.97
2022-11-26T17:47:41.609Z,96042.78
2022-11-26T17:50:21.789Z,96041.34
2022-11-26T17:52:49.824Z,96039.06
2022-11-26T17:55:18.837Z,96042.31
2022-11-26T17:57:45.844Z,96035.56
2022-11-26T18:00:15.970Z,96039.69
2022-11-26T18:02:43.918Z,96036.31
2022-11-26T18:05:11.286Z,96038.41
2022-11-26T18:07:38.624Z,96046.31
2022-11-26T18:10:08.109Z,96054.28
2022-11-26T18:12:34.873Z,96046.78
2022-11-26T18:15:02.257Z,96048.97
2022-11-26T18:17:28.958Z,96059.84
2022-11-26T18:19:56.696Z,96056.97
2022-11-26T18:22:25.831Z,96059.47
2022-11-26T18:24:57.297Z,96059.75
2022-11-26T18:27:28.181Z,96068.19
2022-11-26T18:29:54.971Z,96053.56
2022-11-26T18:32:22.404Z,96046.94
2022-11-26T18:34:51.011Z,96052.03
2022-11-26T18:37:18.920Z,96057.69
2022-11-26T18:39:45.621Z,96064.97
2022-11-26T18:42:35.980Z,96070.28
2022-11-26T18:45:00.139Z,96070.59
2022-11-26T18:47:26.884Z,96067.47
2022-11-26T18:49:53.622Z,96070.63
2022-11-26T18:52:20.317Z,96053.66
2022-11-26T18:54:47.833Z,96065.91
2022-11-26T18:57:14.624Z,96080.13
2022-11-26T18:59:41.558Z,96079.03
2022-11-26T19:02:10.359Z,96083.69
2022-11-26T19:04:39.002Z,96081.88
2022-11-26T19:07:06.683Z,96080.63
2022-11-26T19:09:34.043Z,96074.94
2022-11-26T19:12:01.081Z,96072.69
2022-11-26T19:14:27.780Z,96075.69
2022-11-26T19:16:54.548Z,96077.91
2022-11-26T19:19:21.718Z,96076.38
2022-11-26T19:21:50.479Z,96074.31
2022-11-26T19:24:17.920Z,96075.56
2022-11-26T19:26:44.732Z,96046.00
2022-11-26T19:29:12.857Z,96056.75
2022-11-26T19:31:40.125Z,96052.25
2022-11-26T19:34:11.677Z,96047.97
2022-11-26T19:36:38.637Z,96035.34
2022-11-26T19:39:06.757Z,96048.56
2022-11-26T19:41:34.564Z,96046.00
2022-11-26T19:44:04.241Z,96050.25
2022-11-26T19:46:31.568Z,96017.56
2022-11-26T19:48:58.307Z,96017.53
2022-11-26T19:51:26.909Z,96023.97
2022-11-26T19:53:55.765Z,96049.09
2022-11-26T19:56:26.501Z,96032.97
2022-11-26T19:58:54.236Z,96031.69
2022-11-26T20:01:22.149Z,96025.38
2022-11-26T20:03:50.575Z,96041.25
2022-11-26T20:06:23.221Z,96051.53
2022-11-26T20:08:50.317Z,96048.25
2022-11-26T20:11:19.072Z,96042.81
2022-11-26T20:13:48.359Z,96040.31
2022-11-26T20:16:25.015Z,96027.34
2022-11-26T20:18:52.164Z,96027.88
2022-11-26T20:21:25.776Z,96009.69
2022-11-26T20:23:54.287Z,96025.22
2022-11-26T20:26:29.216Z,96036.88
2022-11-26T20:28:59.536Z,96032.97
2022-11-26T20:31:26.824Z,96031.38
2022-11-26T20:33:54.378Z,96036.78
2022-11-26T20:36:23.430Z,96027.25
2022-11-26T20:38:58.912Z,96036.69
2022-11-26T20:41:26.508Z,96033.53
2022-11-26T20:43:59.073Z,96032.09
2022-11-26T20:46:28.536Z,96027.75
2022-11-26T20:48:56.484Z,96013.00
2022-11-26T20:51:24.765Z,96011.03
2022-11-26T20:53:53.569Z,96020.84
2022-11-26T20:56:22.576Z,96028.34
2022-11-26T20:58:51.197Z,96034.84
2022-11-26T21:01:28.400Z,96006.88
2022-11-26T21:03:56.294Z,96013.03
2022-11-26T21:06:30.404Z,96021.28
2022-11-26T21:09:00.204Z,96027.06
2022-11-26T21:11:27.345Z,96025.44
2022-11-26T21:13:54.252Z,96020.50
2022-11-26T21:16:21.265Z,96011.94
2022-11-26T21:18:48.066Z,96007.19
2022-11-26T21:21:17.093Z,96012.19
2022-11-26T21:23:45.166Z,96002.69
2022-11-26T21:26:20.671Z,95995.72
2022-11-26T21:29:05.476Z,95998.84
2022-11-26T21:31:32.597Z,96004.81
2022-11-26T21:34:01.489Z,96012.44
2022-11-26T21:36:29.967Z,96017.19
2022-11-26T21:38:56.964Z,96015.50
2022-11-26T21:41:24.717Z,96019.19
2022-11-26T21:43:51.820Z,96023.84
2022-11-26T21:46:27.765Z,96024.97
2022-11-26T21:48:56.067Z,96024.69
2022-11-26T21:51:25.250Z,96021.78
2022-11-26T21:53:54.279Z,96027.41
2022-11-26T21:56:24.613Z,96013.38
2022-11-26T21:58:51.888Z,96003.38
2022-11-26T22:01:23.030Z,96006.91
2022-11-26T22:03:53.120Z,96005.06
2022-11-26T22:06:21.430Z,96006.16
2022-11-26T22:08:48.884Z,96015.13
2022-11-26T22:11:28.163Z,96015.91
2022-11-26T22:13:55.244Z,96006.22
2022-11-26T22:16:24.385Z,95993.72
2022-11-26T22:18:53.123Z,95998.69
2022-11-26T22:21:24.085Z,95997.88
2022-11-26T22:23:52.078Z,95999.19
2022-11-26T22:26:20.656Z,95986.56
2022-11-26T22:28:49.738Z,95977.22
2022-11-26T22:31:28.208Z,95979.41
2022-11-26T22:34:01.390Z,95987.25
2022-11-26T22:36:28.612Z,95998.28
2022-11-26T22:38:55.603Z,95991.72
2022-11-26T22:41:23.356Z,95963.59
2022-11-26T22:43:51.192Z,95987.69
2022-11-26T22:46:20.996Z,95981.75
2022-11-26T22:48:53.426Z,95968.69
2022-11-26T22:51:22.116Z,95988.72
2022-11-26T22:53:53.646Z,95987.84
2022-11-26T22:56:21.991Z,95980.41
2022-11-26T22:58:50.133Z,95972.94
2022-11-26T23:01:22.350Z,95971.63
2022-11-26T23:03:51.380Z,95975.00
2022-11-26T23:06:20.086Z,95980.81
2022-11-26T23:08:47.426Z,95990.84
2022-11-26T23:11:26.591Z,95988.59
2022-11-26T23:13:54.677Z,95968.53
2022-11-26T23:16:25.305Z,95979.63
2022-11-26T23:18:54.705Z,95985.53
2022-11-26T23:21:26.786Z,95976.13
2022-11-26T23:23:53.851Z,95995.16
2022-11-26T23:26:27.570Z,95985.78
2022-11-26T23:28:56.716Z,95985.94
2022-11-26T23:31:26.792Z,95957.69
2022-11-26T23:33:53.947Z,95937.69
2022-11-26T23:36:21.993Z,95955.31
2022-11-26T23:38:48.850Z,95961.97
2022-11-26T23:41:15.782Z,95939.06
2022-11-26T23:43:43.012Z,95969.78
2022-11-26T23:46:14.190Z,95982.94
2022-11-26T23:48:41.364Z,95980.66
2022-11-26T23:51:10.815Z,95968.69
2022-11-26T23:53:39.009Z,95971.72
2022-11-26T23:56:08.992Z,95954.03
2022-11-26T23:58:35.998Z,95947.03
